Capitol Logistics 3276


MBPV
Providenciales International Airport
Providenciales, TC
MYNN
Lynden Pindling International Airport
Nassau, BS

Activity Log

Date Flight Route Aircraft Duration
10/12/2019 CPX676 PVN BR2L DUKKY A555 ZQA SF34 1h 59m
09/04/2019 CPX676 PVN BR2L DUKKY A555 ZQA SF34 1h 25m
08/23/2019 CPX676 PVN BR2L DUKKY A555 ZQA SF34 1h 31m

Route Details

Aircraft Information
Primary: Saab 340AF
Backup: Not Available
Route Data
Distance: 347nm
Sched. Duration: 2h 20m
Avg. Duration: 1h 38m (-82m)
Times Flown: 3
Recm'd Route: PVN BR2L DUKKY A555 ZQA
Planned Altitude: 17,000ft
Origin Wx: MBPV 271700Z 18006KT 9999 SCT012 29/22 Q1016
Dest. Wx: MYNN 271700Z 34009KT 9999 BKN040 26/19 A3006
Notes:

Financial History
Total Freight: 14,960lbs
Average Load: 4,987lbs/flt
Fuel Used: 4,582lbs
Avg. Fuel Used: 1,527lbs/flt
Fuel Expense: $3,116
Avg. Fuel Expense: $1,039
Avg. Fuel Cost: $0.68/lbs
Total Gross Income: $16,755
Pilot Pay: $687
Total Expenses: $1,966
Total Revenue: $10,499
Average Revenue: $5,585.07